Time;durP1;ratioP1;P1;durP2;ratioP2;P2;SDS_P1;SDS_P2;PMS_P1;PMS_P2;Temp;Humidity;BMP_temperature;BMP_pressure;BME280_temperature;BME280_humidity;BME280_pressure;Samples;Min_cycle;Max_cycle;Signal;HPM_P1;HPM_P2
2022/07/03 00:01:33;;;;;;;;;;;26.60;90.60;;;;;;5049229;28;19920;-58
2022/07/03 00:04:01;;;;;;;;;;;26.60;90.60;;;;;;5053656;28;20422;-53
2022/07/03 00:06:30;;;;;;;;;;;26.60;90.60;;;;;;5054575;28;19920;-52
2022/07/03 00:08:58;;;;;;;;;;;26.60;90.60;;;;;;5049820;28;19921;-54
2022/07/03 00:11:25;;;;;;;;;;;26.60;90.60;;;;;;5055395;28;19951;-51
2022/07/03 00:13:53;;;;;;;;;;;26.60;90.60;;;;;;5051122;28;20427;-52
2022/07/03 00:16:20;;;;;;;;;;;26.60;90.60;;;;;;5055283;28;19925;-53
2022/07/03 00:18:47;;;;;;;;;;;26.60;90.60;;;;;;5049176;28;19924;-51
2022/07/03 00:21:18;;;;;;;;;;;26.60;90.60;;;;;;5053132;28;19924;-49
2022/07/03 00:23:51;;;;;;;;;;;26.60;90.90;;;;;;5048919;28;19924;-52
2022/07/03 00:26:19;;;;;;;;;;;26.60;90.60;;;;;;5049539;28;19921;-52
2022/07/03 00:28:46;;;;;;;;;;;26.60;90.60;;;;;;5048982;28;19931;-49
2022/07/03 00:31:13;;;;;;;;;;;26.60;90.60;;;;;;5048451;28;19924;-50
2022/07/03 00:33:41;;;;;;;;;;;26.60;90.60;;;;;;5048223;28;19931;-49
2022/07/03 00:36:08;;;;;;;;;;;26.60;90.60;;;;;;5049802;28;19925;-49
2022/07/03 00:38:35;;;;;;;;;;;26.60;90.60;;;;;;5048619;28;19924;-56
2022/07/03 00:41:03;;;;;;;;;;;26.60;90.60;;;;;;5053132;28;19935;-49
2022/07/03 00:43:30;;;;;;;;;;;26.60;90.60;;;;;;5050291;28;20431;-51
2022/07/03 00:46:05;;;;;;;;;;;26.60;90.60;;;;;;5049323;28;20414;-54
2022/07/03 00:48:35;;;;;;;;;;;26.60;90.60;;;;;;5047497;28;19929;-52
2022/07/03 00:51:05;;;;;;;;;;;26.60;90.60;;;;;;5056729;28;19928;-53
2022/07/03 00:53:33;;;;;;;;;;;26.60;90.60;;;;;;5051531;28;19954;-50
2022/07/03 00:56:03;;;;;;;;;;;26.60;90.60;;;;;;5062710;28;19932;-52
2022/07/03 00:58:33;;;;;;;;;;;26.60;90.60;;;;;;5050930;28;19932;-52
2022/07/03 01:01:01;;;;;;;;;;;26.60;90.60;;;;;;5054742;28;19931;-52
2022/07/03 01:03:31;;;;;;;;;;;26.60;90.60;;;;;;5049894;28;20016;-54
2022/07/03 01:06:03;;;;;;;;;;;26.60;90.60;;;;;;5055027;28;20387;-53
2022/07/03 01:08:45;;;;;;;;;;;26.60;90.60;;;;;;5059446;28;19925;-55
2022/07/03 01:11:19;;;;;;;;;;;26.60;90.60;;;;;;5050824;28;20284;-55
2022/07/03 01:14:02;;;;;;;;;;;26.50;90.60;;;;;;5053644;28;19925;-53
2022/07/03 01:16:41;;;;;;;;;;;26.50;90.60;;;;;;5048645;28;19925;-51
2022/07/03 01:19:23;;;;;;;;;;;26.50;90.60;;;;;;5047704;28;19925;-53
2022/07/03 01:22:20;;;;;;;;;;;26.50;90.60;;;;;;5047792;28;19944;-52
2022/07/03 01:24:53;;;;;;;;;;;26.50;90.60;;;;;;5048762;28;19928;-53
2022/07/03 01:27:27;;;;;;;;;;;26.50;90.60;;;;;;5047962;28;19924;-51
2022/07/03 01:30:03;;;;;;;;;;;26.50;90.70;;;;;;5047517;28;19928;-51
2022/07/03 01:32:39;;;;;;;;;;;26.50;90.70;;;;;;5047085;28;19924;-51
2022/07/03 01:35:07;;;;;;;;;;;26.50;90.70;;;;;;5053417;28;19924;-52
2022/07/03 01:37:35;;;;;;;;;;;26.50;90.70;;;;;;5049506;28;20207;-54
2022/07/03 01:40:03;;;;;;;;;;;26.50;90.70;;;;;;5048490;28;20079;-53
2022/07/03 01:42:33;;;;;;;;;;;26.50;90.70;;;;;;5059411;28;19925;-50
2022/07/03 01:45:00;;;;;;;;;;;26.50;90.70;;;;;;5051939;28;20323;-54
2022/07/03 01:47:28;;;;;;;;;;;26.50;90.70;;;;;;5047552;28;19925;-53
2022/07/03 01:49:56;;;;;;;;;;;26.50;90.70;;;;;;5047615;28;19920;-49
2022/07/03 01:52:24;;;;;;;;;;;26.50;90.70;;;;;;5047758;28;19928;-50
2022/07/03 01:55:15;;;;;;;;;;;26.50;90.70;;;;;;5048423;28;19928;-54
2022/07/03 01:57:51;;;;;;;;;;;26.40;90.70;;;;;;5070379;28;19935;-58
2022/07/03 02:00:19;;;;;;;;;;;26.40;90.70;;;;;;5064222;28;20323;-55
2022/07/03 02:02:57;;;;;;;;;;;26.50;90.70;;;;;;5056788;28;19924;-50
2022/07/03 02:05:30;;;;;;;;;;;26.40;90.70;;;;;;5052449;28;19928;-52
2022/07/03 02:08:03;;;;;;;;;;;26.40;90.70;;;;;;5051609;28;19931;-50
2022/07/03 02:10:33;;;;;;;;;;;26.40;90.70;;;;;;5052546;28;19932;-50
2022/07/03 02:13:02;;;;;;;;;;;26.40;90.70;;;;;;5066268;28;20455;-55
2022/07/03 02:15:30;;;;;;;;;;;26.40;90.70;;;;;;5056759;28;19925;-55
2022/07/03 02:18:00;;;;;;;;;;;26.40;90.70;;;;;;5052266;28;19924;-55
2022/07/03 02:20:30;;;;;;;;;;;26.40;90.70;;;;;;5050987;28;19920;-51
2022/07/03 02:22:59;;;;;;;;;;;26.40;90.70;;;;;;5050726;28;19936;-50
2022/07/03 02:25:30;;;;;;;;;;;26.40;90.70;;;;;;5051716;28;19931;-50
2022/07/03 02:28:02;;;;;;;;;;;26.40;90.70;;;;;;5051313;28;19932;-55
2022/07/03 02:30:30;;;;;;;;;;;26.40;90.70;;;;;;5051441;28;20643;-54
2022/07/03 02:32:58;;;;;;;;;;;26.40;90.70;;;;;;5050522;28;19924;-55
2022/07/03 02:35:27;;;;;;;;;;;26.40;90.70;;;;;;5050496;28;20392;-51
2022/07/03 02:38:00;;;;;;;;;;;26.40;90.70;;;;;;5051545;28;19936;-51
2022/07/03 02:40:42;;;;;;;;;;;26.30;90.70;;;;;;5051964;28;19924;-53
2022/07/03 02:43:15;;;;;;;;;;;26.30;90.70;;;;;;5053029;28;20215;-55
2022/07/03 02:46:00;;;;;;;;;;;26.30;90.70;;;;;;5052107;28;19924;-52
2022/07/03 02:48:40;;;;;;;;;;;26.30;90.70;;;;;;5052837;28;20320;-51
2022/07/03 02:51:13;;;;;;;;;;;26.30;90.70;;;;;;5062184;28;19921;-51
2022/07/03 02:54:03;;;;;;;;;;;26.30;90.70;;;;;;5065054;28;20225;-54
2022/07/03 02:56:36;;;;;;;;;;;26.40;90.80;;;;;;5045608;28;19931;-58
2022/07/03 02:59:06;;;;;;;;;;;26.30;90.80;;;;;;5052012;28;19932;-52
2022/07/03 03:01:33;;;;;;;;;;;26.30;90.80;;;;;;5049787;28;19924;-50
2022/07/03 03:04:13;;;;;;;;;;;26.30;90.80;;;;;;5051287;28;19925;-51
2022/07/03 03:06:42;;;;;;;;;;;26.30;90.80;;;;;;5050930;28;19932;-51
2022/07/03 03:09:13;;;;;;;;;;;26.30;90.80;;;;;;5058086;28;19924;-51
2022/07/03 03:11:42;;;;;;;;;;;26.30;90.80;;;;;;5056877;28;20407;-51
2022/07/03 03:14:13;;;;;;;;;;;26.30;90.80;;;;;;5051562;28;19921;-54
2022/07/03 03:16:46;;;;;;;;;;;26.30;90.80;;;;;;5051400;28;19925;-52
2022/07/03 03:19:13;;;;;;;;;;;26.30;90.80;;;;;;5053096;28;20246;-56
2022/07/03 03:21:45;;;;;;;;;;;26.30;90.80;;;;;;5051183;28;19931;-55
2022/07/03 03:24:12;;;;;;;;;;;26.30;90.80;;;;;;5050134;28;19935;-56
2022/07/03 03:26:40;;;;;;;;;;;26.30;90.80;;;;;;5056960;28;19951;-55
2022/07/03 03:29:07;;;;;;;;;;;26.30;90.80;;;;;;5049829;28;19928;-52
2022/07/03 03:31:34;;;;;;;;;;;26.30;90.80;;;;;;5050235;28;20387;-51
2022/07/03 03:34:02;;;;;;;;;;;26.30;90.80;;;;;;5049723;28;20026;-51
2022/07/03 03:36:29;;;;;;;;;;;26.20;90.80;;;;;;5050540;28;19924;-50
2022/07/03 03:38:56;;;;;;;;;;;26.20;90.80;;;;;;5049796;28;19935;-51
2022/07/03 03:41:24;;;;;;;;;;;26.20;91.00;;;;;;5056302;28;20368;-54
2022/07/03 03:43:51;;;;;;;;;;;26.20;90.80;;;;;;5050343;28;19925;-53
2022/07/03 03:46:18;;;;;;;;;;;26.20;90.80;;;;;;5052859;28;19931;-52
2022/07/03 03:48:47;;;;;;;;;;;26.20;90.80;;;;;;5049722;28;19931;-50
2022/07/03 03:51:14;;;;;;;;;;;26.20;90.80;;;;;;5050696;28;19935;-53
2022/07/03 03:53:42;;;;;;;;;;;26.20;90.80;;;;;;5049677;28;19939;-53
2022/07/03 03:56:11;;;;;;;;;;;26.20;90.80;;;;;;5064985;28;19931;-53
2022/07/03 03:58:39;;;;;;;;;;;26.20;90.80;;;;;;5057501;28;19925;-50
2022/07/03 04:01:07;;;;;;;;;;;26.20;90.80;;;;;;5053284;28;19928;-51
2022/07/03 04:03:35;;;;;;;;;;;26.20;90.80;;;;;;5049627;28;19925;-57
2022/07/03 04:06:02;;;;;;;;;;;26.20;90.80;;;;;;5066688;28;19924;-51
2022/07/03 04:08:30;;;;;;;;;;;26.20;90.80;;;;;;5059880;28;20423;-56
2022/07/03 04:10:57;;;;;;;;;;;26.20;90.80;;;;;;5055002;28;20383;-50
2022/07/03 04:13:24;;;;;;;;;;;26.20;90.80;;;;;;5050162;28;19924;-51
2022/07/03 04:15:52;;;;;;;;;;;26.20;90.80;;;;;;5051696;28;19928;-51
2022/07/03 04:18:20;;;;;;;;;;;26.20;91.10;;;;;;5049714;28;20412;-52
2022/07/03 04:20:47;;;;;;;;;;;26.20;90.90;;;;;;5049172;28;19936;-49
2022/07/03 04:23:14;;;;;;;;;;;26.20;90.90;;;;;;5049722;28;19924;-51
2022/07/03 04:25:41;;;;;;;;;;;26.20;90.90;;;;;;5048404;28;19924;-53
2022/07/03 04:28:11;;;;;;;;;;;26.20;90.90;;;;;;5050178;28;19932;-53
2022/07/03 04:30:46;;;;;;;;;;;26.10;90.80;;;;;;5063639;28;19929;-52
2022/07/03 04:33:13;;;;;;;;;;;26.20;90.90;;;;;;5048292;28;20246;-53
2022/07/03 04:35:40;;;;;;;;;;;26.10;90.80;;;;;;5049228;28;19925;-55
2022/07/03 04:38:07;;;;;;;;;;;26.10;90.80;;;;;;5049678;28;19924;-57
2022/07/03 04:40:34;;;;;;;;;;;26.10;90.90;;;;;;5051551;28;19931;-54
2022/07/03 04:43:01;;;;;;;;;;;26.20;90.80;;;;;;5062522;28;19931;-53
2022/07/03 04:45:29;;;;;;;;;;;26.20;90.80;;;;;;5065914;28;19924;-53
2022/07/03 04:47:56;;;;;;;;;;;26.20;90.80;;;;;;5050170;28;19940;-53
2022/07/03 04:50:23;;;;;;;;;;;26.20;90.80;;;;;;5047894;28;19924;-53
2022/07/03 04:52:50;;;;;;;;;;;26.20;90.80;;;;;;5061123;28;19924;-55
2022/07/03 04:55:17;;;;;;;;;;;26.20;90.80;;;;;;5050658;28;20332;-53
2022/07/03 04:57:44;;;;;;;;;;;26.20;90.80;;;;;;5049902;28;20566;-50
2022/07/03 05:00:12;;;;;;;;;;;26.20;90.80;;;;;;5052281;28;19931;-55
2022/07/03 05:02:39;;;;;;;;;;;26.20;90.80;;;;;;5048289;28;19924;-51
2022/07/03 05:05:07;;;;;;;;;;;26.20;90.80;;;;;;5047515;28;19944;-55
2022/07/03 05:07:34;;;;;;;;;;;26.20;90.80;;;;;;5048506;28;19944;-54
2022/07/03 05:10:01;;;;;;;;;;;26.20;90.80;;;;;;5050897;28;19932;-54
2022/07/03 05:12:28;;;;;;;;;;;26.20;90.80;;;;;;5049974;28;19943;-54
2022/07/03 05:14:55;;;;;;;;;;;26.20;90.80;;;;;;5048598;28;19924;-53
2022/07/03 05:17:22;;;;;;;;;;;26.20;90.80;;;;;;5049000;28;19924;-53
2022/07/03 05:20:23;;;;;;;;;;;26.20;90.80;;;;;;5047382;28;19995;-55
2022/07/03 05:22:39;;;;;;;;;;;26.20;91.10;;;;;;5048452;28;19921;-54
2022/07/03 05:25:06;;;;;;;;;;;26.20;90.90;;;;;;5047624;28;19931;-58
2022/07/03 05:27:37;;;;;;;;;;;26.20;90.80;;;;;;5047585;28;19925;-55
2022/07/03 05:30:04;;;;;;;;;;;26.20;90.90;;;;;;5047782;28;19999;-52
2022/07/03 05:32:31;;;;;;;;;;;26.20;90.80;;;;;;5047402;28;19924;-52
2022/07/03 05:34:59;;;;;;;;;;;26.20;90.80;;;;;;5048688;28;19925;-53
2022/07/03 05:37:26;;;;;;;;;;;26.20;90.90;;;;;;5046470;28;19936;-55
2022/07/03 05:39:53;;;;;;;;;;;26.20;90.90;;;;;;5047347;28;20211;-53
2022/07/03 05:42:20;;;;;;;;;;;26.10;90.80;;;;;;5047918;28;19931;-55
2022/07/03 05:44:47;;;;;;;;;;;26.20;90.90;;;;;;5053875;28;19998;-54
2022/07/03 05:47:15;;;;;;;;;;;26.20;90.90;;;;;;5049719;28;20435;-54
2022/07/03 05:49:42;;;;;;;;;;;26.20;90.90;;;;;;5048333;28;20011;-54
2022/07/03 05:52:09;;;;;;;;;;;26.20;90.90;;;;;;5047489;28;19928;-55
2022/07/03 05:54:36;;;;;;;;;;;26.20;90.90;;;;;;5047418;28;19931;-54
2022/07/03 05:57:04;;;;;;;;;;;26.10;90.90;;;;;;5052492;28;20004;-53
2022/07/03 05:59:31;;;;;;;;;;;26.20;90.90;;;;;;5052291;28;19944;-51
2022/07/03 06:01:59;;;;;;;;;;;26.20;90.90;;;;;;5052696;28;19939;-50
2022/07/03 06:04:26;;;;;;;;;;;26.20;90.90;;;;;;5047006;28;19940;-53
2022/07/03 06:06:54;;;;;;;;;;;26.20;90.90;;;;;;5048838;28;19925;-54
2022/07/03 06:09:22;;;;;;;;;;;26.20;90.90;;;;;;5053962;28;20003;-51
2022/07/03 06:11:49;;;;;;;;;;;26.20;90.90;;;;;;5050405;28;19931;-51
2022/07/03 06:14:17;;;;;;;;;;;26.20;90.80;;;;;;5047122;28;19941;-50
2022/07/03 06:16:44;;;;;;;;;;;26.20;90.80;;;;;;5061371;28;19925;-52
2022/07/03 06:19:11;;;;;;;;;;;26.20;90.80;;;;;;5048109;28;19924;-52
2022/07/03 06:21:38;;;;;;;;;;;26.20;90.80;;;;;;5048189;28;19924;-54
2022/07/03 06:24:06;;;;;;;;;;;26.20;90.80;;;;;;5046781;28;20291;-53
2022/07/03 06:26:33;;;;;;;;;;;26.20;90.90;;;;;;5050897;28;19947;-52
2022/07/03 06:29:00;;;;;;;;;;;26.20;90.90;;;;;;5053461;28;19924;-51
2022/07/03 06:31:27;;;;;;;;;;;26.20;90.90;;;;;;5049695;28;19928;-50
2022/07/03 06:33:55;;;;;;;;;;;26.20;90.90;;;;;;5061664;28;20468;-52
2022/07/03 06:36:22;;;;;;;;;;;26.20;90.90;;;;;;5048591;28;20415;-53
2022/07/03 06:38:50;;;;;;;;;;;26.10;90.90;;;;;;5053369;28;20308;-55
2022/07/03 06:41:17;;;;;;;;;;;26.20;90.90;;;;;;5047964;28;19925;-54
2022/07/03 06:43:44;;;;;;;;;;;26.10;90.90;;;;;;5047502;28;19931;-52
2022/07/03 06:46:11;;;;;;;;;;;26.20;90.90;;;;;;5064396;28;19928;-54
2022/07/03 06:48:39;;;;;;;;;;;26.20;90.90;;;;;;5048137;28;19947;-53
2022/07/03 06:51:06;;;;;;;;;;;26.20;90.90;;;;;;5050095;28;19928;-51
2022/07/03 06:53:33;;;;;;;;;;;26.20;90.90;;;;;;5060980;28;19920;-53
2022/07/03 06:56:00;;;;;;;;;;;26.20;90.90;;;;;;5052821;28;19925;-58
2022/07/03 06:58:27;;;;;;;;;;;26.20;91.20;;;;;;5055554;28;19931;-51
2022/07/03 07:00:54;;;;;;;;;;;26.20;91.00;;;;;;5052706;28;19925;-50
2022/07/03 07:03:22;;;;;;;;;;;26.20;91.00;;;;;;5050167;28;19924;-51
2022/07/03 07:05:49;;;;;;;;;;;26.20;91.00;;;;;;5054059;28;19920;-53
2022/07/03 07:08:16;;;;;;;;;;;26.20;91.00;;;;;;5056641;28;20410;-49
2022/07/03 07:10:43;;;;;;;;;;;26.20;91.00;;;;;;5059408;28;19921;-51
2022/07/03 07:13:10;;;;;;;;;;;26.20;91.00;;;;;;5052537;28;19924;-54
2022/07/03 07:15:37;;;;;;;;;;;26.20;91.00;;;;;;5060110;28;19928;-51
2022/07/03 07:18:05;;;;;;;;;;;26.20;91.00;;;;;;5051725;28;19925;-54
2022/07/03 07:20:32;;;;;;;;;;;26.20;91.10;;;;;;5050300;28;19925;-49
2022/07/03 07:22:59;;;;;;;;;;;26.20;91.10;;;;;;5050761;28;19932;-56
2022/07/03 07:25:26;;;;;;;;;;;26.20;91.10;;;;;;5054057;28;19932;-55
2022/07/03 07:27:53;;;;;;;;;;;26.20;91.10;;;;;;5053111;28;19925;-55
2022/07/03 07:30:21;;;;;;;;;;;26.20;91.10;;;;;;5052600;28;19925;-54
2022/07/03 07:32:48;;;;;;;;;;;26.30;91.10;;;;;;5049186;28;19931;-49
2022/07/03 07:35:21;;;;;;;;;;;26.20;91.10;;;;;;5049750;28;20458;-53
2022/07/03 07:37:48;;;;;;;;;;;26.30;91.20;;;;;;5065840;28;19924;-52
2022/07/03 07:40:15;;;;;;;;;;;26.30;91.20;;;;;;5050626;28;19925;-52
2022/07/03 07:42:42;;;;;;;;;;;26.30;91.20;;;;;;5058007;28;19927;-55
2022/07/03 07:45:10;;;;;;;;;;;26.30;91.20;;;;;;5051889;28;19935;-54
2022/07/03 07:47:37;;;;;;;;;;;26.30;91.20;;;;;;5049117;28;19936;-53
2022/07/03 07:50:05;;;;;;;;;;;26.30;91.30;;;;;;5048647;28;19936;-51
2022/07/03 07:52:32;;;;;;;;;;;26.30;91.30;;;;;;5049219;28;19932;-54
2022/07/03 07:54:59;;;;;;;;;;;26.30;91.30;;;;;;5049643;28;19925;-51
2022/07/03 07:57:36;;;;;;;;;;;26.30;91.30;;;;;;5049401;28;19924;-57
2022/07/03 08:00:04;;;;;;;;;;;26.30;91.30;;;;;;5052598;28;19924;-52
2022/07/03 08:05:36;;;;;;;;;;;26.30;91.30;;;;;;5050190;28;19927;-49
2022/07/03 08:08:05;;;;;;;;;;;26.40;91.40;;;;;;5058800;28;19928;-48
2022/07/03 08:10:39;;;;;;;;;;;26.30;91.40;;;;;;5048626;28;19925;-50
2022/07/03 08:13:07;;;;;;;;;;;26.30;91.40;;;;;;5048733;28;19920;-53
2022/07/03 08:15:34;;;;;;;;;;;26.30;91.40;;;;;;5056138;28;19928;-56
2022/07/03 08:18:02;;;;;;;;;;;26.30;91.40;;;;;;5052788;28;19925;-57
2022/07/03 08:20:30;;;;;;;;;;;26.30;91.40;;;;;;5052116;28;19924;-54
2022/07/03 08:22:58;;;;;;;;;;;26.30;91.40;;;;;;5068488;28;19928;-54
2022/07/03 08:25:25;;;;;;;;;;;26.30;91.40;;;;;;5049554;28;19920;-53
2022/07/03 08:27:52;;;;;;;;;;;26.30;91.40;;;;;;5049077;28;19924;-54
2022/07/03 08:30:20;;;;;;;;;;;26.30;91.40;;;;;;5049880;28;20459;-52
2022/07/03 08:32:47;;;;;;;;;;;26.40;91.40;;;;;;5048577;28;19924;-54
2022/07/03 08:35:15;;;;;;;;;;;26.40;91.40;;;;;;5049891;28;19944;-52
2022/07/03 08:37:43;;;;;;;;;;;26.40;91.40;;;;;;5048912;28;20300;-52
2022/07/03 08:40:11;;;;;;;;;;;26.40;91.40;;;;;;5046053;28;19931;-54
2022/07/03 08:42:42;;;;;;;;;;;26.40;91.40;;;;;;5055277;28;20288;-54
2022/07/03 08:45:13;;;;;;;;;;;26.40;91.40;;;;;;5054655;28;19924;-49
2022/07/03 08:47:41;;;;;;;;;;;26.40;91.50;;;;;;5048070;28;19920;-52
2022/07/03 08:50:10;;;;;;;;;;;26.30;91.40;;;;;;5047869;28;19948;-54
2022/07/03 08:52:37;;;;;;;;;;;26.40;91.40;;;;;;5048699;28;19921;-50
2022/07/03 08:55:04;;;;;;;;;;;26.40;91.50;;;;;;5064285;28;20383;-56
2022/07/03 08:57:35;;;;;;;;;;;26.40;91.50;;;;;;5056035;28;20396;-54
2022/07/03 09:00:06;;;;;;;;;;;26.40;91.50;;;;;;5054789;28;19930;-52
2022/07/03 09:02:33;;;;;;;;;;;26.40;91.50;;;;;;5052414;28;20311;-53
2022/07/03 09:05:02;;;;;;;;;;;26.40;91.50;;;;;;5059401;28;19972;-51
2022/07/03 09:07:39;;;;;;;;;;;26.40;91.40;;;;;;5051137;28;19928;-55
2022/07/03 09:10:07;;;;;;;;;;;26.40;91.40;;;;;;5047613;28;19951;-55
2022/07/03 09:12:35;;;;;;;;;;;26.40;91.40;;;;;;5054632;28;19939;-51
2022/07/03 09:15:03;;;;;;;;;;;26.40;91.40;;;;;;5051062;28;19932;-54
2022/07/03 09:17:31;;;;;;;;;;;26.50;91.50;;;;;;5048813;28;19963;-55
2022/07/03 09:19:59;;;;;;;;;;;26.40;91.40;;;;;;5048077;28;19950;-52
2022/07/03 09:22:27;;;;;;;;;;;26.40;91.40;;;;;;5049955;28;19924;-49
2022/07/03 09:25:03;;;;;;;;;;;26.40;91.40;;;;;;5047852;28;19932;-55
2022/07/03 09:27:31;;;;;;;;;;;26.40;91.40;;;;;;5048246;28;19925;-52
2022/07/03 09:29:59;;;;;;;;;;;26.50;91.50;;;;;;5046312;28;20429;-51
2022/07/03 09:32:32;;;;;;;;;;;26.50;91.50;;;;;;5053282;28;20520;-53
2022/07/03 09:35:15;;;;;;;;;;;26.50;91.50;;;;;;5048202;28;19936;-53
2022/07/03 09:37:49;;;;;;;;;;;26.40;91.40;;;;;;5048583;28;19924;-50
2022/07/03 09:40:17;;;;;;;;;;;26.40;91.40;;;;;;5048446;28;20379;-54
2022/07/03 09:43:01;;;;;;;;;;;26.50;91.50;;;;;;5047560;28;20470;-51
2022/07/03 09:45:47;;;;;;;;;;;26.40;91.40;;;;;;5047887;28;19921;-52
2022/07/03 09:48:41;;;;;;;;;;;26.50;91.50;;;;;;5049892;28;19948;-50
2022/07/03 09:51:34;;;;;;;;;;;26.40;91.40;;;;;;5049627;28;19935;-54
2022/07/03 09:54:02;;;;;;;;;;;26.50;91.50;;;;;;5045842;28;19932;-55
2022/07/03 09:56:37;;;;;;;;;;;26.40;91.40;;;;;;5072959;28;19935;-55
2022/07/03 09:59:07;;;;;;;;;;;26.50;91.50;;;;;;5052799;28;20306;-54
2022/07/03 10:01:35;;;;;;;;;;;26.40;91.40;;;;;;5050763;28;19932;-53
2022/07/03 10:04:10;;;;;;;;;;;26.50;91.50;;;;;;5047788;28;20258;-51
2022/07/03 10:06:49;;;;;;;;;;;26.50;91.50;;;;;;5048946;28;19928;-55
2022/07/03 10:09:18;;;;;;;;;;;26.50;91.40;;;;;;5046949;28;20522;-58
2022/07/03 10:11:45;;;;;;;;;;;26.50;91.40;;;;;;5054570;28;19931;-57
2022/07/03 10:14:14;;;;;;;;;;;26.50;91.70;;;;;;5047254;28;19927;-54
2022/07/03 10:16:42;;;;;;;;;;;26.50;91.40;;;;;;5050115;28;19931;-54
2022/07/03 10:19:13;;;;;;;;;;;26.40;91.40;;;;;;5048768;28;19948;-53
2022/07/03 10:21:42;;;;;;;;;;;26.40;91.40;;;;;;5049946;28;19928;-55
2022/07/03 10:24:10;;;;;;;;;;;26.40;91.40;;;;;;5050119;28;19996;-55
2022/07/03 10:26:38;;;;;;;;;;;26.40;91.40;;;;;;5058160;28;19924;-55
2022/07/03 10:29:07;;;;;;;;;;;26.50;91.40;;;;;;5061772;28;19963;-51
2022/07/03 10:31:34;;;;;;;;;;;26.40;91.40;;;;;;5054213;28;19921;-52
2022/07/03 10:34:02;;;;;;;;;;;26.50;91.40;;;;;;5050720;28;19931;-51
2022/07/03 10:36:30;;;;;;;;;;;26.50;91.40;;;;;;5054181;28;20280;-56
2022/07/03 10:38:58;;;;;;;;;;;26.40;91.40;;;;;;5051012;28;19948;-50
2022/07/03 10:47:04;;;;;;;;;;;26.40;91.40;;;;;;5050942;28;19925;-52
2022/07/03 10:49:34;;;;;;;;;;;26.40;91.40;;;;;;5058602;28;19947;-49
2022/07/03 10:52:03;;;;;;;;;;;26.40;91.50;;;;;;5050224;28;19924;-54
2022/07/03 10:54:34;;;;;;;;;;;26.40;91.40;;;;;;5050720;28;20372;-54
2022/07/03 10:57:01;;;;;;;;;;;26.50;91.40;;;;;;5050184;28;20402;-50
2022/07/03 10:59:34;;;;;;;;;;;26.40;91.40;;;;;;5054719;28;20268;-54
2022/07/03 11:02:20;;;;;;;;;;;26.40;91.40;;;;;;5055702;28;19928;-52
2022/07/03 11:04:56;;;;;;;;;;;26.40;91.40;;;;;;5050228;28;19924;-54
2022/07/03 11:07:33;;;;;;;;;;;26.40;91.40;;;;;;5051876;28;19924;-54
2022/07/03 11:10:12;;;;;;;;;;;26.50;91.40;;;;;;5050053;28;20222;-55
2022/07/03 11:12:58;;;;;;;;;;;26.40;91.30;;;;;;5056688;28;19932;-52
2022/07/03 11:15:31;;;;;;;;;;;26.50;91.30;;;;;;5058621;28;20354;-51
2022/07/03 11:18:07;;;;;;;;;;;26.50;91.40;;;;;;5056714;28;19931;-52
2022/07/03 11:20:37;;;;;;;;;;;26.50;91.40;;;;;;5055824;28;19924;-54
2022/07/03 11:23:08;;;;;;;;;;;26.50;91.40;;;;;;5050860;28;19954;-51
2022/07/03 11:25:45;;;;;;;;;;;26.50;91.30;;;;;;5050115;28;20272;-49
2022/07/03 11:28:34;;;;;;;;;;;26.50;91.30;;;;;;5050798;28;19920;-52
2022/07/03 11:31:11;;;;;;;;;;;26.50;91.30;;;;;;5049573;28;19931;-54
2022/07/03 11:33:44;;;;;;;;;;;26.50;91.60;;;;;;5049225;28;20300;-54
2022/07/03 11:36:14;;;;;;;;;;;26.50;91.30;;;;;;5047738;28;20016;-52
2022/07/03 11:38:47;;;;;;;;;;;26.40;91.30;;;;;;5052418;28;20415;-52
2022/07/03 11:41:16;;;;;;;;;;;26.40;91.30;;;;;;5049367;28;20275;-53
2022/07/03 11:43:53;;;;;;;;;;;26.50;91.40;;;;;;5048753;28;20280;-55
2022/07/03 11:46:21;;;;;;;;;;;26.50;91.30;;;;;;5063874;28;19931;-54
2022/07/03 11:48:48;;;;;;;;;;;26.50;91.30;;;;;;5061876;28;20348;-52
2022/07/03 11:51:16;;;;;;;;;;;26.50;91.20;;;;;;5051049;28;19925;-53
2022/07/03 11:53:43;;;;;;;;;;;26.50;91.30;;;;;;5054725;28;19947;-53
2022/07/03 11:56:11;;;;;;;;;;;26.50;91.30;;;;;;5055984;28;19925;-53
2022/07/03 11:58:51;;;;;;;;;;;26.60;91.30;;;;;;5054917;28;19924;-53
2022/07/03 12:01:21;;;;;;;;;;;26.60;91.20;;;;;;5055441;28;19931;-54
2022/07/03 12:03:49;;;;;;;;;;;26.50;91.00;;;;;;5062313;28;20387;-53
2022/07/03 12:06:16;;;;;;;;;;;26.60;90.80;;;;;;5059010;28;19928;-55
2022/07/03 12:08:46;;;;;;;;;;;26.60;90.70;;;;;;5063733;28;19924;-50
2022/07/03 12:11:15;;;;;;;;;;;26.60;90.70;;;;;;5057660;28;19936;-58
2022/07/03 12:13:42;;;;;;;;;;;26.50;90.80;;;;;;5052959;28;19925;-53
2022/07/03 12:16:13;;;;;;;;;;;26.50;90.70;;;;;;5058892;28;19920;-56
2022/07/03 12:18:46;;;;;;;;;;;26.60;90.70;;;;;;5050006;28;19928;-54
2022/07/03 12:21:14;;;;;;;;;;;26.60;90.60;;;;;;5055898;28;19936;-50
2022/07/03 12:23:49;;;;;;;;;;;26.60;90.50;;;;;;5058012;28;19929;-56
2022/07/03 12:26:31;;;;;;;;;;;26.60;90.40;;;;;;5058424;28;19938;-51
2022/07/03 12:28:59;;;;;;;;;;;26.60;90.30;;;;;;5050702;28;19968;-51
2022/07/03 12:31:28;;;;;;;;;;;26.60;90.00;;;;;;5048402;28;19924;-54
2022/07/03 12:33:57;;;;;;;;;;;26.60;89.20;;;;;;5062481;28;19931;-53
2022/07/03 12:36:24;;;;;;;;;;;26.60;88.90;;;;;;5058531;28;19930;-57
2022/07/03 12:38:52;;;;;;;;;;;26.60;88.80;;;;;;5054335;28;19925;-53
2022/07/03 12:41:19;;;;;;;;;;;26.60;90.00;;;;;;5059257;28;21370;-51
2022/07/03 12:43:50;;;;;;;;;;;26.60;89.20;;;;;;5061920;28;19925;-50
2022/07/03 12:46:19;;;;;;;;;;;26.70;89.10;;;;;;5058312;28;19925;-54
2022/07/03 12:48:48;;;;;;;;;;;26.60;88.90;;;;;;5052544;28;19924;-54
2022/07/03 12:51:16;;;;;;;;;;;26.70;88.90;;;;;;5049259;28;19925;-53
2022/07/03 12:53:54;;;;;;;;;;;26.70;88.70;;;;;;5056476;28;19928;-55
2022/07/03 12:56:21;;;;;;;;;;;26.60;88.60;;;;;;5059277;28;19928;-51
2022/07/03 13:01:36;;;;;;;;;;;26.70;88.00;;;;;;5060106;28;19921;-57
2022/07/03 13:04:03;;;;;;;;;;;26.70;87.70;;;;;;5067867;28;19925;-58
2022/07/03 13:06:30;;;;;;;;;;;26.70;87.60;;;;;;5064225;28;19932;-58
2022/07/03 13:09:00;;;;;;;;;;;26.70;87.40;;;;;;5055404;28;20050;-53
2022/07/03 13:11:28;;;;;;;;;;;26.70;87.20;;;;;;5050523;28;20003;-52
2022/07/03 13:14:06;;;;;;;;;;;26.70;86.90;;;;;;5056071;28;20261;-56
2022/07/03 13:16:41;;;;;;;;;;;26.80;86.80;;;;;;5055620;28;19924;-53
2022/07/03 13:19:09;;;;;;;;;;;26.80;86.40;;;;;;5055242;28;19928;-52
2022/07/03 13:21:36;;;;;;;;;;;26.80;86.30;;;;;;5050182;28;19932;-51
2022/07/03 13:24:04;;;;;;;;;;;26.90;86.20;;;;;;5057434;28;20307;-55
2022/07/03 13:26:31;;;;;;;;;;;26.90;85.90;;;;;;5057512;28;20279;-51
2022/07/03 13:28:58;;;;;;;;;;;26.90;85.80;;;;;;5079704;28;20368;-52
2022/07/03 13:31:26;;;;;;;;;;;26.80;85.80;;;;;;5051585;28;19924;-53
2022/07/03 13:33:53;;;;;;;;;;;26.80;85.80;;;;;;5057280;28;19931;-56
2022/07/03 13:36:20;;;;;;;;;;;26.80;86.30;;;;;;5058880;28;19925;-57
2022/07/03 13:38:48;;;;;;;;;;;26.80;85.50;;;;;;5059117;28;19925;-56
2022/07/03 13:41:15;;;;;;;;;;;26.90;85.10;;;;;;5060648;28;19932;-56
2022/07/03 13:43:42;;;;;;;;;;;27.00;84.90;;;;;;5052364;28;19924;-56
2022/07/03 13:46:09;;;;;;;;;;;27.00;84.60;;;;;;5053136;28;20391;-55
2022/07/03 13:48:36;;;;;;;;;;;27.00;84.60;;;;;;5055661;28;20402;-51
2022/07/03 13:51:04;;;;;;;;;;;27.10;84.60;;;;;;5057049;28;19943;-55
2022/07/03 13:53:32;;;;;;;;;;;27.00;84.50;;;;;;5060835;28;19928;-55
2022/07/03 13:55:59;;;;;;;;;;;27.00;84.30;;;;;;5057418;28;19932;-54
2022/07/03 13:58:26;;;;;;;;;;;27.10;84.00;;;;;;5058262;28;19992;-54
2022/07/03 14:00:54;;;;;;;;;;;27.20;84.10;;;;;;5059183;28;19943;-54
2022/07/03 14:03:21;;;;;;;;;;;27.10;84.10;;;;;;5055218;28;19929;-55
2022/07/03 14:05:51;;;;;;;;;;;27.20;84.00;;;;;;5063422;28;19928;-55
2022/07/03 14:08:18;;;;;;;;;;;27.30;83.60;;;;;;5076452;28;19924;-55
2022/07/03 14:10:46;;;;;;;;;;;27.30;83.20;;;;;;5056776;28;19944;-58
2022/07/03 14:13:16;;;;;;;;;;;27.30;83.20;;;;;;5050551;28;19928;-53
2022/07/03 14:15:43;;;;;;;;;;;27.20;83.30;;;;;;5072722;28;19924;-55
2022/07/03 14:18:10;;;;;;;;;;;27.10;83.60;;;;;;5063810;28;19925;-54
2022/07/03 14:20:37;;;;;;;;;;;27.20;84.00;;;;;;5074278;28;19935;-53
2022/07/03 14:23:05;;;;;;;;;;;27.20;84.00;;;;;;5059432;28;20319;-51
2022/07/03 14:25:32;;;;;;;;;;;27.30;84.10;;;;;;5050318;28;20327;-55
2022/07/03 14:33:30;;;;;;;;;;;27.40;84.90;;;;;;5049820;28;19931;-56
2022/07/03 14:35:57;;;;;;;;;;;27.40;85.10;;;;;;5051340;28;19925;-54
2022/07/03 14:38:30;;;;;;;;;;;27.40;85.00;;;;;;5049948;28;19925;-52
2022/07/03 14:40:57;;;;;;;;;;;27.50;85.10;;;;;;5056975;28;19924;-52
2022/07/03 14:43:24;;;;;;;;;;;27.60;85.10;;;;;;5051041;28;19924;-54
2022/07/03 14:45:51;;;;;;;;;;;27.70;85.20;;;;;;5060696;28;19928;-54
2022/07/03 14:48:19;;;;;;;;;;;27.70;85.30;;;;;;5049821;28;19920;-54